sensor_id;sensor_type;location;lat;lon;timestamp;temperature;humidity
29725;DHT22;16636;48.394;15.468;2023-03-04T00:01:18;4.70;40.60
29725;DHT22;16636;48.394;15.468;2023-03-04T00:03:44;4.70;39.50
29725;DHT22;16636;48.394;15.468;2023-03-04T00:06:10;4.60;39.70
29725;DHT22;16636;48.394;15.468;2023-03-04T00:08:36;4.60;38.00
29725;DHT22;16636;48.394;15.468;2023-03-04T00:11:03;4.50;41.50
29725;DHT22;16636;48.394;15.468;2023-03-04T00:13:29;4.40;39.10
29725;DHT22;16636;48.394;15.468;2023-03-04T00:15:55;4.40;42.20
29725;DHT22;16636;48.394;15.468;2023-03-04T00:18:21;4.30;40.00
29725;DHT22;16636;48.394;15.468;2023-03-04T00:20:47;4.30;38.80
29725;DHT22;16636;48.394;15.468;2023-03-04T00:23:14;4.40;38.60
29725;DHT22;16636;48.394;15.468;2023-03-04T00:25:41;4.40;37.10
29725;DHT22;16636;48.394;15.468;2023-03-04T00:28:07;4.30;38.80
29725;DHT22;16636;48.394;15.468;2023-03-04T00:30:33;4.20;39.50
29725;DHT22;16636;48.394;15.468;2023-03-04T00:32:59;4.30;30.90
29725;DHT22;16636;48.394;15.468;2023-03-04T00:35:25;4.30;29.20
29725;DHT22;16636;48.394;15.468;2023-03-04T00:37:52;4.30;29.10
29725;DHT22;16636;48.394;15.468;2023-03-04T00:40:19;4.30;31.10
29725;DHT22;16636;48.394;15.468;2023-03-04T00:42:45;4.20;32.00
29725;DHT22;16636;48.394;15.468;2023-03-04T00:45:11;4.10;32.80
29725;DHT22;16636;48.394;15.468;2023-03-04T00:47:37;4.10;33.40
29725;DHT22;16636;48.394;15.468;2023-03-04T00:50:03;4.10;32.30
29725;DHT22;16636;48.394;15.468;2023-03-04T00:52:29;4.10;27.30
29725;DHT22;16636;48.394;15.468;2023-03-04T00:54:55;4.00;26.50
29725;DHT22;16636;48.394;15.468;2023-03-04T00:57:21;3.90;27.50
29725;DHT22;16636;48.394;15.468;2023-03-04T00:59:47;3.90;28.10
29725;DHT22;16636;48.394;15.468;2023-03-04T01:02:13;3.80;29.10
29725;DHT22;16636;48.394;15.468;2023-03-04T01:04:39;3.80;31.30
29725;DHT22;16636;48.394;15.468;2023-03-04T01:07:07;3.80;33.70
29725;DHT22;16636;48.394;15.468;2023-03-04T01:09:33;3.70;36.20
29725;DHT22;16636;48.394;15.468;2023-03-04T01:12:01;3.60;34.70
29725;DHT22;16636;48.394;15.468;2023-03-04T01:14:27;3.60;33.30
29725;DHT22;16636;48.394;15.468;2023-03-04T01:16:53;3.50;32.70
29725;DHT22;16636;48.394;15.468;2023-03-04T01:19:21;3.60;34.40
29725;DHT22;16636;48.394;15.468;2023-03-04T01:21:47;3.60;31.20
29725;DHT22;16636;48.394;15.468;2023-03-04T01:24:14;3.60;31.40
29725;DHT22;16636;48.394;15.468;2023-03-04T01:26:40;3.60;33.30
29725;DHT22;16636;48.394;15.468;2023-03-04T01:29:06;3.70;35.40
29725;DHT22;16636;48.394;15.468;2023-03-04T01:31:32;3.70;36.50
29725;DHT22;16636;48.394;15.468;2023-03-04T01:33:58;3.60;36.40
29725;DHT22;16636;48.394;15.468;2023-03-04T01:36:24;3.60;40.50
29725;DHT22;16636;48.394;15.468;2023-03-04T01:38:50;3.50;40.40
29725;DHT22;16636;48.394;15.468;2023-03-04T01:41:20;3.50;43.40
29725;DHT22;16636;48.394;15.468;2023-03-04T01:43:47;3.40;41.50
29725;DHT22;16636;48.394;15.468;2023-03-04T01:46:13;3.40;44.40
29725;DHT22;16636;48.394;15.468;2023-03-04T01:48:40;3.40;47.60
29725;DHT22;16636;48.394;15.468;2023-03-04T01:51:15;3.40;47.80
29725;DHT22;16636;48.394;15.468;2023-03-04T01:53:43;3.40;45.20
29725;DHT22;16636;48.394;15.468;2023-03-04T01:56:29;3.30;43.00
29725;DHT22;16636;48.394;15.468;2023-03-04T02:01:48;3.30;45.40
29725;DHT22;16636;48.394;15.468;2023-03-04T02:04:17;3.30;48.70
29725;DHT22;16636;48.394;15.468;2023-03-04T02:06:45;3.30;49.30
29725;DHT22;16636;48.394;15.468;2023-03-04T02:09:14;3.30;51.10
29725;DHT22;16636;48.394;15.468;2023-03-04T02:11:41;3.30;60.20
29725;DHT22;16636;48.394;15.468;2023-03-04T02:14:09;3.40;59.40
29725;DHT22;16636;48.394;15.468;2023-03-04T02:16:36;3.30;54.90
29725;DHT22;16636;48.394;15.468;2023-03-04T02:19:06;3.30;54.80
29725;DHT22;16636;48.394;15.468;2023-03-04T02:21:34;3.20;54.10
29725;DHT22;16636;48.394;15.468;2023-03-04T02:26:49;3.10;62.20
29725;DHT22;16636;48.394;15.468;2023-03-04T02:29:16;3.00;64.80
29725;DHT22;16636;48.394;15.468;2023-03-04T02:31:48;3.00;64.00
29725;DHT22;16636;48.394;15.468;2023-03-04T02:34:19;2.90;71.70
29725;DHT22;16636;48.394;15.468;2023-03-04T02:36:46;2.90;74.90
29725;DHT22;16636;48.394;15.468;2023-03-04T02:41:52;2.80;74.10
29725;DHT22;16636;48.394;15.468;2023-03-04T02:44:25;2.90;78.60
29725;DHT22;16636;48.394;15.468;2023-03-04T02:46:52;2.90;78.70
29725;DHT22;16636;48.394;15.468;2023-03-04T02:49:19;2.90;84.90
29725;DHT22;16636;48.394;15.468;2023-03-04T02:51:50;2.90;86.00
29725;DHT22;16636;48.394;15.468;2023-03-04T02:54:22;2.90;86.10
29725;DHT22;16636;48.394;15.468;2023-03-04T02:56:51;2.80;85.40
29725;DHT22;16636;48.394;15.468;2023-03-04T02:59:21;2.80;84.00
29725;DHT22;16636;48.394;15.468;2023-03-04T03:01:48;2.80;81.20
29725;DHT22;16636;48.394;15.468;2023-03-04T03:04:15;2.80;80.90
29725;DHT22;16636;48.394;15.468;2023-03-04T03:06:44;2.80;81.00
29725;DHT22;16636;48.394;15.468;2023-03-04T03:09:11;2.70;84.70
29725;DHT22;16636;48.394;15.468;2023-03-04T03:11:37;2.60;88.10
29725;DHT22;16636;48.394;15.468;2023-03-04T03:14:05;2.60;90.30
29725;DHT22;16636;48.394;15.468;2023-03-04T03:16:33;2.60;92.50
29725;DHT22;16636;48.394;15.468;2023-03-04T03:18:59;2.50;91.20
29725;DHT22;16636;48.394;15.468;2023-03-04T03:21:25;2.50;90.80
29725;DHT22;16636;48.394;15.468;2023-03-04T03:23:51;2.50;89.40
29725;DHT22;16636;48.394;15.468;2023-03-04T03:26:18;2.60;90.90
29725;DHT22;16636;48.394;15.468;2023-03-04T03:28:44;2.60;92.30
29725;DHT22;16636;48.394;15.468;2023-03-04T03:31:10;2.50;91.30
29725;DHT22;16636;48.394;15.468;2023-03-04T03:33:36;2.50;93.30
29725;DHT22;16636;48.394;15.468;2023-03-04T03:36:03;2.50;94.30
29725;DHT22;16636;48.394;15.468;2023-03-04T03:38:30;2.60;93.80
29725;DHT22;16636;48.394;15.468;2023-03-04T03:40:56;2.60;95.50
29725;DHT22;16636;48.394;15.468;2023-03-04T03:43:22;2.60;95.50
29725;DHT22;16636;48.394;15.468;2023-03-04T03:45:48;2.60;97.40
29725;DHT22;16636;48.394;15.468;2023-03-04T03:48:14;2.60;95.80
29725;DHT22;16636;48.394;15.468;2023-03-04T03:50:40;2.60;96.80
29725;DHT22;16636;48.394;15.468;2023-03-04T03:53:06;2.60;97.80
29725;DHT22;16636;48.394;15.468;2023-03-04T03:55:32;2.50;96.20
29725;DHT22;16636;48.394;15.468;2023-03-04T03:57:58;2.50;95.80
29725;DHT22;16636;48.394;15.468;2023-03-04T04:00:24;2.50;97.00
29725;DHT22;16636;48.394;15.468;2023-03-04T04:02:51;2.50;97.20
29725;DHT22;16636;48.394;15.468;2023-03-04T04:05:17;2.60;97.30
29725;DHT22;16636;48.394;15.468;2023-03-04T04:07:43;2.60;97.70
29725;DHT22;16636;48.394;15.468;2023-03-04T04:10:10;2.60;97.10
29725;DHT22;16636;48.394;15.468;2023-03-04T04:12:36;2.70;94.50
29725;DHT22;16636;48.394;15.468;2023-03-04T04:15:03;2.70;93.70
29725;DHT22;16636;48.394;15.468;2023-03-04T04:17:29;2.80;93.20
29725;DHT22;16636;48.394;15.468;2023-03-04T04:19:55;2.80;93.50
29725;DHT22;16636;48.394;15.468;2023-03-04T04:22:21;2.90;93.10
29725;DHT22;16636;48.394;15.468;2023-03-04T04:24:47;2.80;92.20
29725;DHT22;16636;48.394;15.468;2023-03-04T04:27:14;2.80;93.20
29725;DHT22;16636;48.394;15.468;2023-03-04T04:29:40;2.90;93.70
29725;DHT22;16636;48.394;15.468;2023-03-04T04:32:07;2.90;93.80
29725;DHT22;16636;48.394;15.468;2023-03-04T04:34:33;2.90;93.40
29725;DHT22;16636;48.394;15.468;2023-03-04T04:37:00;2.90;94.50
29725;DHT22;16636;48.394;15.468;2023-03-04T04:39:26;2.90;93.80
29725;DHT22;16636;48.394;15.468;2023-03-04T04:41:52;2.90;94.40
29725;DHT22;16636;48.394;15.468;2023-03-04T04:44:18;2.90;93.20
29725;DHT22;16636;48.394;15.468;2023-03-04T04:46:44;2.80;93.20
29725;DHT22;16636;48.394;15.468;2023-03-04T04:49:10;2.80;93.20
29725;DHT22;16636;48.394;15.468;2023-03-04T04:51:37;2.80;93.40
29725;DHT22;16636;48.394;15.468;2023-03-04T04:54:04;2.80;94.40
29725;DHT22;16636;48.394;15.468;2023-03-04T04:56:31;2.80;93.50
29725;DHT22;16636;48.394;15.468;2023-03-04T04:59:00;2.80;94.40
29725;DHT22;16636;48.394;15.468;2023-03-04T05:01:27;2.80;94.80
29725;DHT22;16636;48.394;15.468;2023-03-04T05:03:53;2.80;93.70
29725;DHT22;16636;48.394;15.468;2023-03-04T05:06:21;2.80;94.40
29725;DHT22;16636;48.394;15.468;2023-03-04T05:08:48;2.80;95.80
29725;DHT22;16636;48.394;15.468;2023-03-04T05:11:15;2.80;97.50
29725;DHT22;16636;48.394;15.468;2023-03-04T05:13:41;2.70;99.90
29725;DHT22;16636;48.394;15.468;2023-03-04T05:16:08;2.90;99.90
29725;DHT22;16636;48.394;15.468;2023-03-04T05:18:34;2.90;99.90
29725;DHT22;16636;48.394;15.468;2023-03-04T05:21:01;2.90;99.90
29725;DHT22;16636;48.394;15.468;2023-03-04T05:23:31;3.00;99.90
29725;DHT22;16636;48.394;15.468;2023-03-04T05:25:57;3.00;99.90
29725;DHT22;16636;48.394;15.468;2023-03-04T05:28:23;3.00;99.90
29725;DHT22;16636;48.394;15.468;2023-03-04T05:30:49;3.00;99.90
29725;DHT22;16636;48.394;15.468;2023-03-04T05:33:16;3.00;99.90
29725;DHT22;16636;48.394;15.468;2023-03-04T05:35:43;3.00;99.90
29725;DHT22;16636;48.394;15.468;2023-03-04T05:38:11;3.00;99.90
29725;DHT22;16636;48.394;15.468;2023-03-04T05:40:38;3.00;99.90
29725;DHT22;16636;48.394;15.468;2023-03-04T05:43:04;3.00;99.90
29725;DHT22;16636;48.394;15.468;2023-03-04T05:45:31;3.00;99.90
29725;DHT22;16636;48.394;15.468;2023-03-04T05:47:57;3.00;99.90
29725;DHT22;16636;48.394;15.468;2023-03-04T05:50:23;3.00;99.90
29725;DHT22;16636;48.394;15.468;2023-03-04T05:52:51;3.00;99.90
29725;DHT22;16636;48.394;15.468;2023-03-04T05:55:17;3.10;99.90
29725;DHT22;16636;48.394;15.468;2023-03-04T05:57:44;3.10;99.90
29725;DHT22;16636;48.394;15.468;2023-03-04T06:00:12;3.10;99.90
29725;DHT22;16636;48.394;15.468;2023-03-04T06:02:39;3.10;99.90
29725;DHT22;16636;48.394;15.468;2023-03-04T06:05:06;3.10;99.90
29725;DHT22;16636;48.394;15.468;2023-03-04T06:07:33;3.10;99.90
29725;DHT22;16636;48.394;15.468;2023-03-04T06:09:59;3.10;99.90
29725;DHT22;16636;48.394;15.468;2023-03-04T06:12:25;3.10;99.90
29725;DHT22;16636;48.394;15.468;2023-03-04T06:14:51;3.20;99.90
29725;DHT22;16636;48.394;15.468;2023-03-04T06:17:17;3.20;99.90
29725;DHT22;16636;48.394;15.468;2023-03-04T06:19:43;3.20;99.90
29725;DHT22;16636;48.394;15.468;2023-03-04T06:22:09;3.20;99.90
29725;DHT22;16636;48.394;15.468;2023-03-04T06:24:35;3.20;99.90
29725;DHT22;16636;48.394;15.468;2023-03-04T06:27:02;3.20;99.90
29725;DHT22;16636;48.394;15.468;2023-03-04T06:29:28;3.30;99.90
29725;DHT22;16636;48.394;15.468;2023-03-04T06:31:54;3.30;99.90
29725;DHT22;16636;48.394;15.468;2023-03-04T06:34:20;3.30;99.90
29725;DHT22;16636;48.394;15.468;2023-03-04T06:36:46;3.30;99.90
29725;DHT22;16636;48.394;15.468;2023-03-04T06:39:12;3.40;99.90
29725;DHT22;16636;48.394;15.468;2023-03-04T06:41:38;3.40;99.90
29725;DHT22;16636;48.394;15.468;2023-03-04T06:44:05;3.50;99.90
29725;DHT22;16636;48.394;15.468;2023-03-04T06:46:34;3.50;99.90
29725;DHT22;16636;48.394;15.468;2023-03-04T06:49:00;3.50;99.90
29725;DHT22;16636;48.394;15.468;2023-03-04T06:51:27;3.60;99.90
29725;DHT22;16636;48.394;15.468;2023-03-04T06:53:53;3.60;99.90
29725;DHT22;16636;48.394;15.468;2023-03-04T06:56:19;3.70;99.90
29725;DHT22;16636;48.394;15.468;2023-03-04T06:58:45;3.70;99.90
29725;DHT22;16636;48.394;15.468;2023-03-04T07:01:20;3.80;99.90
29725;DHT22;16636;48.394;15.468;2023-03-04T07:03:49;3.80;99.90
29725;DHT22;16636;48.394;15.468;2023-03-04T07:06:18;3.90;99.90
29725;DHT22;16636;48.394;15.468;2023-03-04T07:08:45;3.90;99.90
29725;DHT22;16636;48.394;15.468;2023-03-04T07:11:12;4.00;99.90
29725;DHT22;16636;48.394;15.468;2023-03-04T07:13:38;4.00;99.90
29725;DHT22;16636;48.394;15.468;2023-03-04T07:16:06;4.10;99.90
29725;DHT22;16636;48.394;15.468;2023-03-04T07:18:32;4.10;99.90
29725;DHT22;16636;48.394;15.468;2023-03-04T07:20:58;4.20;99.90
29725;DHT22;16636;48.394;15.468;2023-03-04T07:23:24;4.30;99.90
29725;DHT22;16636;48.394;15.468;2023-03-04T07:25:50;4.30;99.90
29725;DHT22;16636;48.394;15.468;2023-03-04T07:28:17;4.40;99.90
29725;DHT22;16636;48.394;15.468;2023-03-04T07:30:43;4.50;99.90
29725;DHT22;16636;48.394;15.468;2023-03-04T07:33:09;4.60;99.90
29725;DHT22;16636;48.394;15.468;2023-03-04T07:35:36;4.60;99.90
29725;DHT22;16636;48.394;15.468;2023-03-04T07:38:02;4.70;99.90
29725;DHT22;16636;48.394;15.468;2023-03-04T07:40:27;4.70;99.90
29725;DHT22;16636;48.394;15.468;2023-03-04T07:42:54;4.70;99.90
29725;DHT22;16636;48.394;15.468;2023-03-04T07:45:21;4.80;99.90
29725;DHT22;16636;48.394;15.468;2023-03-04T07:47:48;4.90;99.90
29725;DHT22;16636;48.394;15.468;2023-03-04T07:50:14;4.90;99.90
29725;DHT22;16636;48.394;15.468;2023-03-04T07:52:45;5.00;99.90
29725;DHT22;16636;48.394;15.468;2023-03-04T07:55:13;5.10;99.90
29725;DHT22;16636;48.394;15.468;2023-03-04T07:57:40;5.10;99.90
29725;DHT22;16636;48.394;15.468;2023-03-04T08:00:09;5.20;99.90
29725;DHT22;16636;48.394;15.468;2023-03-04T08:02:38;5.30;99.90
29725;DHT22;16636;48.394;15.468;2023-03-04T08:05:04;5.40;99.30
29725;DHT22;16636;48.394;15.468;2023-03-04T08:07:30;5.40;99.90
29725;DHT22;16636;48.394;15.468;2023-03-04T08:09:56;5.50;99.60
29725;DHT22;16636;48.394;15.468;2023-03-04T08:12:22;5.60;99.90
29725;DHT22;16636;48.394;15.468;2023-03-04T08:14:52;5.70;99.90
29725;DHT22;16636;48.394;15.468;2023-03-04T08:17:18;5.80;99.40
29725;DHT22;16636;48.394;15.468;2023-03-04T08:19:44;5.90;99.90
29725;DHT22;16636;48.394;15.468;2023-03-04T08:22:11;6.10;99.90
29725;DHT22;16636;48.394;15.468;2023-03-04T08:24:37;6.20;99.90
29725;DHT22;16636;48.394;15.468;2023-03-04T08:27:03;6.40;98.60
29725;DHT22;16636;48.394;15.468;2023-03-04T08:29:29;6.50;90.60
29725;DHT22;16636;48.394;15.468;2023-03-04T08:31:55;6.50;88.90
29725;DHT22;16636;48.394;15.468;2023-03-04T08:34:23;6.60;86.30
29725;DHT22;16636;48.394;15.468;2023-03-04T08:36:49;6.70;83.80
29725;DHT22;16636;48.394;15.468;2023-03-04T08:39:17;6.80;87.50
29725;DHT22;16636;48.394;15.468;2023-03-04T08:41:44;6.80;70.80
29725;DHT22;16636;48.394;15.468;2023-03-04T08:44:10;6.90;63.80
29725;DHT22;16636;48.394;15.468;2023-03-04T08:46:38;7.10;64.10
29725;DHT22;16636;48.394;15.468;2023-03-04T08:49:04;7.20;57.90
29725;DHT22;16636;48.394;15.468;2023-03-04T08:54:04;7.40;56.90
29725;DHT22;16636;48.394;15.468;2023-03-04T08:56:31;7.40;55.30
29725;DHT22;16636;48.394;15.468;2023-03-04T08:58:58;7.50;56.70
29725;DHT22;16636;48.394;15.468;2023-03-04T09:01:24;7.50;55.80
29725;DHT22;16636;48.394;15.468;2023-03-04T09:03:49;7.70;65.20
29725;DHT22;16636;48.394;15.468;2023-03-04T09:06:16;7.80;55.30
29725;DHT22;16636;48.394;15.468;2023-03-04T09:08:43;7.80;52.10
29725;DHT22;16636;48.394;15.468;2023-03-04T09:11:10;7.90;56.40
29725;DHT22;16636;48.394;15.468;2023-03-04T09:13:37;8.00;55.00
29725;DHT22;16636;48.394;15.468;2023-03-04T09:16:12;8.10;55.90
29725;DHT22;16636;48.394;15.468;2023-03-04T09:18:38;8.20;58.60
29725;DHT22;16636;48.394;15.468;2023-03-04T09:21:06;8.30;66.40
29725;DHT22;16636;48.394;15.468;2023-03-04T09:23:33;8.40;86.60
29725;DHT22;16636;48.394;15.468;2023-03-04T09:25:59;8.50;99.90
29725;DHT22;16636;48.394;15.468;2023-03-04T09:28:25;8.70;99.90
29725;DHT22;16636;48.394;15.468;2023-03-04T09:30:52;8.80;99.90
29725;DHT22;16636;48.394;15.468;2023-03-04T09:33:18;8.90;99.90
29725;DHT22;16636;48.394;15.468;2023-03-04T09:35:44;9.00;99.90
29725;DHT22;16636;48.394;15.468;2023-03-04T09:38:10;9.10;99.90
29725;DHT22;16636;48.394;15.468;2023-03-04T09:40:42;9.30;99.90
29725;DHT22;16636;48.394;15.468;2023-03-04T09:43:21;9.50;29.80
29725;DHT22;16636;48.394;15.468;2023-03-04T09:45:54;9.60;30.30
29725;DHT22;16636;48.394;15.468;2023-03-04T09:48:22;9.80;27.60
29725;DHT22;16636;48.394;15.468;2023-03-04T09:54:06;10.10;29.80
29725;DHT22;16636;48.394;15.468;2023-03-04T09:56:35;10.20;24.70
29725;DHT22;16636;48.394;15.468;2023-03-04T09:59:04;10.40;53.60
29725;DHT22;16636;48.394;15.468;2023-03-04T10:01:41;10.50;61.70
29725;DHT22;16636;48.394;15.468;2023-03-04T10:04:25;10.60;47.00
29725;DHT22;16636;48.394;15.468;2023-03-04T10:06:54;10.70;46.40
29725;DHT22;16636;48.394;15.468;2023-03-04T10:12:21;10.80;36.50
29725;DHT22;16636;48.394;15.468;2023-03-04T10:15:03;10.90;48.30
29725;DHT22;16636;48.394;15.468;2023-03-04T10:17:41;11.00;53.10
29725;DHT22;16636;48.394;15.468;2023-03-04T10:20:25;11.20;53.40
29725;DHT22;16636;48.394;15.468;2023-03-04T10:23:15;11.20;49.00
29725;DHT22;16636;48.394;15.468;2023-03-04T10:25:44;11.40;49.40
29725;DHT22;16636;48.394;15.468;2023-03-04T10:28:15;11.40;42.90
29725;DHT22;16636;48.394;15.468;2023-03-04T10:33:26;11.60;34.70
29725;DHT22;16636;48.394;15.468;2023-03-04T10:38:48;11.70;14.50
29725;DHT22;16636;48.394;15.468;2023-03-04T10:41:22;11.70;15.20
29725;DHT22;16636;48.394;15.468;2023-03-04T10:44:14;11.80;14.90
29725;DHT22;16636;48.394;15.468;2023-03-04T10:46:43;11.80;14.80
29725;DHT22;16636;48.394;15.468;2023-03-04T10:49:11;11.90;15.40
29725;DHT22;16636;48.394;15.468;2023-03-04T10:54:52;12.00;17.10
29725;DHT22;16636;48.394;15.468;2023-03-04T10:57:25;12.20;16.30
29725;DHT22;16636;48.394;15.468;2023-03-04T10:59:58;12.10;14.70
29725;DHT22;16636;48.394;15.468;2023-03-04T11:02:30;12.10;14.70
29725;DHT22;16636;48.394;15.468;2023-03-04T11:07:48;12.10;15.20
29725;DHT22;16636;48.394;15.468;2023-03-04T11:10:25;12.20;16.20
29725;DHT22;16636;48.394;15.468;2023-03-04T11:13:01;12.40;16.40
29725;DHT22;16636;48.394;15.468;2023-03-04T11:15:51;12.50;15.80
29725;DHT22;16636;48.394;15.468;2023-03-04T11:18:41;12.50;15.60
29725;DHT22;16636;48.394;15.468;2023-03-04T11:21:16;12.50;17.70
29725;DHT22;16636;48.394;15.468;2023-03-04T11:23:47;12.60;17.40
29725;DHT22;16636;48.394;15.468;2023-03-04T11:26:22;12.60;16.70
29725;DHT22;16636;48.394;15.468;2023-03-04T11:28:51;12.70;17.80
29725;DHT22;16636;48.394;15.468;2023-03-04T11:37:05;12.90;18.90
29725;DHT22;16636;48.394;15.468;2023-03-04T11:39:36;12.90;15.90
29725;DHT22;16636;48.394;15.468;2023-03-04T11:42:33;12.90;17.70
29725;DHT22;16636;48.394;15.468;2023-03-04T11:45:02;12.80;15.50
29725;DHT22;16636;48.394;15.468;2023-03-04T11:50:37;12.80;15.70
29725;DHT22;16636;48.394;15.468;2023-03-04T11:53:36;12.90;16.80
29725;DHT22;16636;48.394;15.468;2023-03-04T11:56:25;13.00;14.50
29725;DHT22;16636;48.394;15.468;2023-03-04T12:13:33;13.70;16.30
29725;DHT22;16636;48.394;15.468;2023-03-04T12:16:17;13.80;15.90
29725;DHT22;16636;48.394;15.468;2023-03-04T12:26:39;13.60;13.50
29725;DHT22;16636;48.394;15.468;2023-03-04T12:31:44;13.90;16.40
29725;DHT22;16636;48.394;15.468;2023-03-04T12:36:52;13.60;15.50
29725;DHT22;16636;48.394;15.468;2023-03-04T12:39:31;13.60;14.50
29725;DHT22;16636;48.394;15.468;2023-03-04T12:42:34;13.70;14.90
29725;DHT22;16636;48.394;15.468;2023-03-04T12:51:22;14.00;15.90
29725;DHT22;16636;48.394;15.468;2023-03-04T12:57:01;13.90;15.40
29725;DHT22;16636;48.394;15.468;2023-03-04T12:59:35;13.90;15.30
29725;DHT22;16636;48.394;15.468;2023-03-04T13:07:59;14.00;14.10
29725;DHT22;16636;48.394;15.468;2023-03-04T13:10:28;13.90;15.90
29725;DHT22;16636;48.394;15.468;2023-03-04T13:12:57;14.10;16.40
29725;DHT22;16636;48.394;15.468;2023-03-04T13:17:52;14.10;13.90
29725;DHT22;16636;48.394;15.468;2023-03-04T13:20:34;13.90;14.50
29725;DHT22;16636;48.394;15.468;2023-03-04T13:43:40;14.00;14.90
29725;DHT22;16636;48.394;15.468;2023-03-04T13:51:25;14.20;16.60
29725;DHT22;16636;48.394;15.468;2023-03-04T13:56:29;14.20;16.00
29725;DHT22;16636;48.394;15.468;2023-03-04T13:59:08;14.30;15.40
29725;DHT22;16636;48.394;15.468;2023-03-04T14:04:32;14.10;16.10
29725;DHT22;16636;48.394;15.468;2023-03-04T14:07:01;14.20;15.40
29725;DHT22;16636;48.394;15.468;2023-03-04T14:09:30;14.20;15.70
29725;DHT22;16636;48.394;15.468;2023-03-04T14:12:10;14.00;14.00
29725;DHT22;16636;48.394;15.468;2023-03-04T14:14:46;13.90;15.00
29725;DHT22;16636;48.394;15.468;2023-03-04T14:17:15;13.80;14.10
29725;DHT22;16636;48.394;15.468;2023-03-04T14:19:44;13.70;14.90
29725;DHT22;16636;48.394;15.468;2023-03-04T14:25:03;13.60;14.50
29725;DHT22;16636;48.394;15.468;2023-03-04T14:27:32;13.50;14.80
29725;DHT22;16636;48.394;15.468;2023-03-04T14:30:03;13.60;15.10
29725;DHT22;16636;48.394;15.468;2023-03-04T14:32:29;13.50;14.80
29725;DHT22;16636;48.394;15.468;2023-03-04T14:35:05;13.50;14.70
29725;DHT22;16636;48.394;15.468;2023-03-04T14:37:59;13.50;14.40
29725;DHT22;16636;48.394;15.468;2023-03-04T14:40:38;13.50;13.80
29725;DHT22;16636;48.394;15.468;2023-03-04T14:43:19;13.50;14.30
29725;DHT22;16636;48.394;15.468;2023-03-04T14:45:51;13.40;14.10
29725;DHT22;16636;48.394;15.468;2023-03-04T14:48:30;13.40;14.50
29725;DHT22;16636;48.394;15.468;2023-03-04T14:50:58;13.40;14.50
29725;DHT22;16636;48.394;15.468;2023-03-04T14:53:27;13.30;14.30
29725;DHT22;16636;48.394;15.468;2023-03-04T14:56:08;13.30;15.70
29725;DHT22;16636;48.394;15.468;2023-03-04T14:58:50;13.30;15.10
29725;DHT22;16636;48.394;15.468;2023-03-04T15:01:36;13.40;14.80
29725;DHT22;16636;48.394;15.468;2023-03-04T15:04:07;13.30;11.50
29725;DHT22;16636;48.394;15.468;2023-03-04T15:06:36;13.30;10.70
29725;DHT22;16636;48.394;15.468;2023-03-04T15:09:24;13.30;9.80
29725;DHT22;16636;48.394;15.468;2023-03-04T15:11:56;13.40;11.70
29725;DHT22;16636;48.394;15.468;2023-03-04T15:14:47;13.10;7.80
29725;DHT22;16636;48.394;15.468;2023-03-04T15:17:36;12.90;8.20
29725;DHT22;16636;48.394;15.468;2023-03-04T15:22:54;12.50;9.70
29725;DHT22;16636;48.394;15.468;2023-03-04T15:25:21;12.40;9.20
29725;DHT22;16636;48.394;15.468;2023-03-04T15:27:48;12.30;9.50
29725;DHT22;16636;48.394;15.468;2023-03-04T15:30:23;12.10;8.40
29725;DHT22;16636;48.394;15.468;2023-03-04T15:32:50;12.00;7.40
29725;DHT22;16636;48.394;15.468;2023-03-04T15:35:18;12.00;8.40
29725;DHT22;16636;48.394;15.468;2023-03-04T15:37:47;12.00;8.40
29725;DHT22;16636;48.394;15.468;2023-03-04T15:40:37;12.00;9.00
29725;DHT22;16636;48.394;15.468;2023-03-04T15:43:05;11.90;9.40
29725;DHT22;16636;48.394;15.468;2023-03-04T15:45:33;11.90;9.90
29725;DHT22;16636;48.394;15.468;2023-03-04T15:48:05;11.80;7.20
29725;DHT22;16636;48.394;15.468;2023-03-04T15:50:41;11.70;10.00
29725;DHT22;16636;48.394;15.468;2023-03-04T15:53:13;11.60;9.00
29725;DHT22;16636;48.394;15.468;2023-03-04T15:55:42;11.50;8.30
29725;DHT22;16636;48.394;15.468;2023-03-04T15:58:10;11.40;7.80
29725;DHT22;16636;48.394;15.468;2023-03-04T16:00:36;11.30;9.30
29725;DHT22;16636;48.394;15.468;2023-03-04T16:03:03;11.30;10.50
29725;DHT22;16636;48.394;15.468;2023-03-04T16:05:30;11.20;8.50
29725;DHT22;16636;48.394;15.468;2023-03-04T16:07:56;11.10;9.00
29725;DHT22;16636;48.394;15.468;2023-03-04T16:10:28;11.10;8.60
29725;DHT22;16636;48.394;15.468;2023-03-04T16:12:56;11.00;7.60
29725;DHT22;16636;48.394;15.468;2023-03-04T16:15:27;10.90;7.60
29725;DHT22;16636;48.394;15.468;2023-03-04T16:17:54;10.80;8.00
29725;DHT22;16636;48.394;15.468;2023-03-04T16:20:24;10.80;8.30
29725;DHT22;16636;48.394;15.468;2023-03-04T16:22:53;10.70;8.60
29725;DHT22;16636;48.394;15.468;2023-03-04T16:25:20;10.70;14.00
29725;DHT22;16636;48.394;15.468;2023-03-04T16:27:46;10.60;16.50
29725;DHT22;16636;48.394;15.468;2023-03-04T16:30:18;10.60;19.40
29725;DHT22;16636;48.394;15.468;2023-03-04T16:32:45;10.60;20.20
29725;DHT22;16636;48.394;15.468;2023-03-04T16:35:16;10.50;20.60
29725;DHT22;16636;48.394;15.468;2023-03-04T16:37:43;10.50;21.00
29725;DHT22;16636;48.394;15.468;2023-03-04T16:40:16;10.40;21.20
29725;DHT22;16636;48.394;15.468;2023-03-04T16:42:42;10.30;21.10
29725;DHT22;16636;48.394;15.468;2023-03-04T16:45:20;10.20;21.70
29725;DHT22;16636;48.394;15.468;2023-03-04T16:47:47;10.10;21.50
29725;DHT22;16636;48.394;15.468;2023-03-04T16:50:15;10.00;22.00
29725;DHT22;16636;48.394;15.468;2023-03-04T16:52:44;10.00;22.30
29725;DHT22;16636;48.394;15.468;2023-03-04T16:55:18;9.90;22.20
29725;DHT22;16636;48.394;15.468;2023-03-04T16:57:45;9.80;22.00
29725;DHT22;16636;48.394;15.468;2023-03-04T17:00:12;9.70;22.40
29725;DHT22;16636;48.394;15.468;2023-03-04T17:02:40;9.60;22.80
29725;DHT22;16636;48.394;15.468;2023-03-04T17:05:06;9.50;22.50
29725;DHT22;16636;48.394;15.468;2023-03-04T17:07:32;9.30;22.40
29725;DHT22;16636;48.394;15.468;2023-03-04T17:09:59;9.30;22.50
29725;DHT22;16636;48.394;15.468;2023-03-04T17:12:25;9.10;22.50
29725;DHT22;16636;48.394;15.468;2023-03-04T17:14:51;9.10;23.20
29725;DHT22;16636;48.394;15.468;2023-03-04T17:17:17;9.00;23.30
29725;DHT22;16636;48.394;15.468;2023-03-04T17:19:43;8.90;22.70
29725;DHT22;16636;48.394;15.468;2023-03-04T17:22:10;8.80;23.30
29725;DHT22;16636;48.394;15.468;2023-03-04T17:24:36;8.70;23.70
29725;DHT22;16636;48.394;15.468;2023-03-04T17:27:02;8.60;23.20
29725;DHT22;16636;48.394;15.468;2023-03-04T17:29:28;8.60;23.50
29725;DHT22;16636;48.394;15.468;2023-03-04T17:31:54;8.50;23.00
29725;DHT22;16636;48.394;15.468;2023-03-04T17:34:20;8.50;23.90
29725;DHT22;16636;48.394;15.468;2023-03-04T17:36:46;8.40;23.60
29725;DHT22;16636;48.394;15.468;2023-03-04T17:39:12;8.40;23.00